createdAt,value
2023-05-10T00:00:38.282Z,94238.00
2023-05-10T00:01:38.321Z,94235.00
2023-05-10T00:02:38.577Z,94238.00
2023-05-10T00:03:38.459Z,94238.00
2023-05-10T00:04:38.442Z,94233.00
2023-05-10T00:05:38.454Z,94235.00
2023-05-10T00:06:38.541Z,94229.00
2023-05-10T00:07:38.514Z,94235.00
2023-05-10T00:08:38.554Z,94233.00
2023-05-10T00:09:38.568Z,94231.00
2023-05-10T00:10:38.623Z,94233.00
2023-05-10T00:11:38.708Z,94235.00
2023-05-10T00:12:38.709Z,94237.00
2023-05-10T00:13:38.746Z,94237.00
2023-05-10T00:14:38.761Z,94235.00
2023-05-10T00:15:38.862Z,94233.00
2023-05-10T00:16:38.954Z,94233.00
2023-05-10T00:17:38.995Z,94233.00
2023-05-10T00:18:38.980Z,94231.00
2023-05-10T00:19:39.024Z,94235.00
2023-05-10T00:20:39.032Z,94233.00
2023-05-10T00:21:39.081Z,94233.00
2023-05-10T00:22:39.084Z,94233.00
2023-05-10T00:23:39.162Z,94235.00
2023-05-10T00:24:39.159Z,94235.00
2023-05-10T00:25:39.161Z,94233.00
2023-05-10T00:26:39.178Z,94235.00
2023-05-10T00:27:39.181Z,94235.00
2023-05-10T00:28:39.247Z,94233.00
2023-05-10T00:29:39.263Z,94235.00
2023-05-10T00:30:39.277Z,94235.00
2023-05-10T00:31:39.327Z,94235.00
2023-05-10T00:32:39.420Z,94233.00
2023-05-10T00:33:39.385Z,94238.00
2023-05-10T00:34:39.412Z,94233.00
2023-05-10T00:35:39.454Z,94235.00
2023-05-10T00:36:39.444Z,94237.00
2023-05-10T00:37:39.461Z,94237.00
2023-05-10T00:38:39.469Z,94238.00
2023-05-10T00:39:39.489Z,94238.00
2023-05-10T00:40:39.481Z,94240.00
2023-05-10T00:41:39.476Z,94240.00
2023-05-10T00:42:39.486Z,94238.00
2023-05-10T00:43:39.521Z,94242.00
2023-05-10T00:44:39.502Z,94240.00
2023-05-10T00:45:39.569Z,94240.00
2023-05-10T00:46:39.499Z,94240.00
2023-05-10T00:47:39.503Z,94240.00
2023-05-10T00:48:39.487Z,94242.00
2023-05-10T00:49:39.478Z,94242.00
2023-05-10T00:50:39.510Z,94242.00
2023-05-10T00:51:39.492Z,94242.00
2023-05-10T00:52:39.477Z,94244.00
2023-05-10T00:53:39.498Z,94244.00
2023-05-10T00:54:39.485Z,94244.00
2023-05-10T00:55:39.480Z,94248.00
2023-05-10T00:56:39.482Z,94242.00
2023-05-10T00:57:39.487Z,94242.00
2023-05-10T00:58:39.469Z,94244.00
2023-05-10T00:59:39.461Z,94244.00
2023-05-10T01:00:39.455Z,94242.00
2023-05-10T01:01:39.482Z,94242.00
2023-05-10T01:02:39.597Z,94244.00
2023-05-10T01:03:39.522Z,94244.00
2023-05-10T01:04:39.492Z,94244.00
2023-05-10T01:05:39.440Z,94242.00
2023-05-10T01:06:39.457Z,94242.00
2023-05-10T01:07:39.452Z,94242.00
2023-05-10T01:08:39.477Z,94242.00
2023-05-10T01:09:39.440Z,94244.00
2023-05-10T01:10:39.485Z,94244.00
2023-05-10T01:11:39.516Z,94246.00
2023-05-10T01:12:39.509Z,94248.00
2023-05-10T01:13:39.494Z,94246.00
2023-05-10T01:14:39.517Z,94244.00
2023-05-10T01:15:39.527Z,94244.00
2023-05-10T01:16:39.489Z,94244.00
2023-05-10T01:17:39.526Z,94244.00
2023-05-10T01:18:39.479Z,94244.00
2023-05-10T01:19:39.470Z,94244.00
2023-05-10T01:20:39.492Z,94242.00
2023-05-10T01:21:39.465Z,94244.00
2023-05-10T01:22:39.500Z,94244.00
2023-05-10T01:23:39.509Z,94244.00
2023-05-10T01:24:39.514Z,94246.00
2023-05-10T01:25:39.505Z,94242.00
2023-05-10T01:26:39.533Z,94244.00
2023-05-10T01:27:39.556Z,94240.00
2023-05-10T01:28:39.522Z,94238.00
2023-05-10T01:29:39.507Z,94240.00
2023-05-10T01:30:39.515Z,94240.00
2023-05-10T01:31:39.577Z,94240.00
2023-05-10T01:32:39.542Z,94238.00
2023-05-10T01:33:39.508Z,94242.00
2023-05-10T01:34:39.535Z,94238.00
2023-05-10T01:35:39.589Z,94238.00
2023-05-10T01:36:39.558Z,94240.00
2023-05-10T01:37:39.575Z,94238.00
2023-05-10T01:38:39.600Z,94238.00
2023-05-10T01:39:39.571Z,94242.00
2023-05-10T01:40:39.577Z,94238.00
2023-05-10T01:41:39.583Z,94240.00
2023-05-10T01:42:39.603Z,94240.00
2023-05-10T01:43:39.656Z,94240.00
2023-05-10T01:44:39.615Z,94238.00
2023-05-10T01:45:39.589Z,94240.00
2023-05-10T01:46:39.674Z,94240.00
2023-05-10T01:47:39.658Z,94240.00
2023-05-10T01:48:39.602Z,94242.00
2023-05-10T01:49:39.611Z,94242.00
2023-05-10T01:50:39.673Z,94244.00
2023-05-10T01:51:39.657Z,94246.00
2023-05-10T01:52:39.662Z,94244.00
2023-05-10T01:53:39.677Z,94244.00
2023-05-10T01:54:39.677Z,94244.00
2023-05-10T01:55:39.700Z,94246.00
2023-05-10T01:56:39.695Z,94248.00
2023-05-10T01:57:39.694Z,94250.00
2023-05-10T01:58:39.711Z,94250.00
2023-05-10T01:59:39.712Z,94254.00
2023-05-10T02:00:39.788Z,94254.00
2023-05-10T02:01:39.784Z,94256.00
2023-05-10T02:02:39.787Z,94252.00
2023-05-10T02:03:39.779Z,94258.00
2023-05-10T02:04:39.786Z,94254.00
2023-05-10T02:05:39.806Z,94262.00
2023-05-10T02:06:39.785Z,94256.00
2023-05-10T02:07:39.829Z,94264.00
2023-05-10T02:08:39.810Z,94258.00
2023-05-10T02:09:39.792Z,94258.00
2023-05-10T02:10:39.821Z,94262.00
2023-05-10T02:11:39.799Z,94262.00
2023-05-10T02:12:39.840Z,94262.00
2023-05-10T02:13:39.834Z,94264.00
2023-05-10T02:14:39.863Z,94266.00
2023-05-10T02:15:39.874Z,94266.00
2023-05-10T02:16:39.945Z,94268.00
2023-05-10T02:17:39.895Z,94266.00
2023-05-10T02:18:39.927Z,94266.00
2023-05-10T02:19:39.903Z,94268.00
2023-05-10T02:20:39.928Z,94268.00
2023-05-10T02:21:39.948Z,94268.00
2023-05-10T02:22:39.954Z,94270.00
2023-05-10T02:23:39.944Z,94272.00
2023-05-10T02:24:39.974Z,94270.00
2023-05-10T02:25:39.989Z,94270.00
2023-05-10T02:26:40.018Z,94270.00
2023-05-10T02:27:40.049Z,94272.00
2023-05-10T02:28:40.061Z,94272.00
2023-05-10T02:29:40.065Z,94274.00
2023-05-10T02:30:40.126Z,94272.00
2023-05-10T02:31:40.129Z,94274.00
2023-05-10T02:32:40.132Z,94276.00
2023-05-10T02:33:40.118Z,94274.00
2023-05-10T02:34:40.146Z,94276.00
2023-05-10T02:35:40.158Z,94274.00
2023-05-10T02:36:40.145Z,94278.00
2023-05-10T02:37:40.171Z,94278.00
2023-05-10T02:38:40.181Z,94280.00
2023-05-10T02:39:40.250Z,94278.00
2023-05-10T02:40:40.185Z,94276.00
2023-05-10T02:41:40.212Z,94278.00
2023-05-10T02:42:40.261Z,94278.00
2023-05-10T02:43:40.250Z,94276.00
2023-05-10T02:44:40.232Z,94278.00
2023-05-10T02:45:40.290Z,94278.00
2023-05-10T02:46:40.284Z,94278.00
2023-05-10T02:47:40.402Z,94278.00
2023-05-10T02:48:40.411Z,94280.00
2023-05-10T02:49:40.363Z,94282.00
2023-05-10T02:50:40.363Z,94278.00
2023-05-10T02:51:40.364Z,94282.00
2023-05-10T02:52:40.365Z,94280.00
2023-05-10T02:53:40.391Z,94282.00
2023-05-10T02:54:40.400Z,94280.00
2023-05-10T02:55:40.438Z,94280.00
2023-05-10T02:56:40.460Z,94282.00
2023-05-10T02:57:40.456Z,94282.00
2023-05-10T02:58:40.597Z,94284.00
2023-05-10T02:59:40.459Z,94282.00
2023-05-10T03:00:40.481Z,94280.00
2023-05-10T03:01:40.629Z,94282.00
2023-05-10T03:02:40.608Z,94280.00
2023-05-10T03:03:40.532Z,94282.00
2023-05-10T03:04:40.594Z,94280.00
2023-05-10T03:05:40.584Z,94282.00
2023-05-10T03:06:40.569Z,94282.00
2023-05-10T03:07:40.590Z,94282.00
2023-05-10T03:08:40.650Z,94282.00
2023-05-10T03:09:40.635Z,94282.00
2023-05-10T03:10:40.689Z,94282.00
2023-05-10T03:11:40.717Z,94280.00
2023-05-10T03:12:40.719Z,94280.00
2023-05-10T03:13:40.726Z,94278.00
2023-05-10T03:14:40.803Z,94282.00
2023-05-10T03:15:40.827Z,94282.00
2023-05-10T03:16:42.080Z,94284.00
2023-05-10T03:17:40.937Z,94280.00
2023-05-10T03:18:40.974Z,94284.00
2023-05-10T03:19:40.956Z,94284.00
2023-05-10T03:20:41.013Z,94284.00
2023-05-10T03:21:41.002Z,94286.00
2023-05-10T03:22:41.009Z,94284.00
2023-05-10T03:23:41.033Z,94286.00
2023-05-10T03:24:41.056Z,94286.00
2023-05-10T03:25:41.112Z,94286.00
2023-05-10T03:26:41.090Z,94289.00
2023-05-10T03:27:41.125Z,94289.00
2023-05-10T03:28:41.138Z,94291.00
2023-05-10T03:29:41.147Z,94293.00
2023-05-10T03:30:41.168Z,94293.00
2023-05-10T03:31:41.252Z,94291.00
2023-05-10T03:32:41.249Z,94293.00
2023-05-10T03:33:41.248Z,94291.00
2023-05-10T03:34:41.284Z,94291.00
2023-05-10T03:35:41.281Z,94293.00
2023-05-10T03:36:41.324Z,94295.00
2023-05-10T03:37:41.345Z,94293.00
2023-05-10T03:38:41.360Z,94295.00
2023-05-10T03:39:41.407Z,94293.00
2023-05-10T03:40:41.436Z,94295.00
2023-05-10T03:41:41.497Z,94297.00
2023-05-10T03:42:41.494Z,94301.00
2023-05-10T03:43:41.504Z,94299.00
2023-05-10T03:44:41.490Z,94297.00
2023-05-10T03:45:41.564Z,94297.00
2023-05-10T03:46:41.616Z,94299.00
2023-05-10T03:47:41.651Z,94301.00
2023-05-10T03:48:41.636Z,94299.00
2023-05-10T03:49:41.688Z,94301.00
2023-05-10T03:50:41.697Z,94303.00
2023-05-10T03:51:41.675Z,94303.00
2023-05-10T03:52:41.728Z,94303.00
2023-05-10T03:53:41.728Z,94305.00
2023-05-10T03:54:41.823Z,94307.00
2023-05-10T03:55:41.829Z,94307.00
2023-05-10T03:56:41.845Z,94309.00
2023-05-10T03:57:41.912Z,94309.00
2023-05-10T03:58:41.916Z,94311.00
2023-05-10T03:59:41.911Z,94311.00
2023-05-10T04:00:41.969Z,94309.00
2023-05-10T04:01:42.028Z,94321.00
2023-05-10T04:02:42.024Z,94325.00
2023-05-10T04:03:42.112Z,94325.00
2023-05-10T04:04:42.074Z,94327.00
2023-05-10T04:05:42.158Z,94327.00
2023-05-10T04:06:42.264Z,94323.00
2023-05-10T04:07:42.267Z,94325.00
2023-05-10T04:08:42.341Z,94325.00
2023-05-10T04:09:42.383Z,94323.00
2023-05-10T04:10:42.409Z,94325.00
2023-05-10T04:11:42.455Z,94321.00
2023-05-10T04:12:42.647Z,94323.00
2023-05-10T04:13:42.571Z,94323.00
2023-05-10T04:14:42.614Z,94321.00
2023-05-10T04:15:42.682Z,94323.00
2023-05-10T04:16:42.777Z,94325.00
2023-05-10T04:17:42.823Z,94325.00
2023-05-10T04:18:42.838Z,94327.00
2023-05-10T04:19:42.914Z,94325.00
2023-05-10T04:20:42.967Z,94325.00
2023-05-10T04:21:43.030Z,94325.00
2023-05-10T04:22:43.103Z,94323.00
2023-05-10T04:23:43.198Z,94325.00
2023-05-10T04:24:43.256Z,94325.00
2023-05-10T04:25:43.249Z,94325.00
2023-05-10T04:26:43.333Z,94327.00
2023-05-10T04:27:43.323Z,94327.00
2023-05-10T04:28:43.323Z,94331.00
2023-05-10T04:29:43.460Z,94333.00
2023-05-10T04:30:43.516Z,94321.00
2023-05-10T04:31:43.511Z,94319.00
2023-05-10T04:32:43.555Z,94321.00
2023-05-10T04:33:43.519Z,94321.00
2023-05-10T04:34:43.678Z,94319.00
2023-05-10T04:35:43.653Z,94317.00
2023-05-10T04:36:43.653Z,94317.00
2023-05-10T04:37:43.655Z,94317.00
2023-05-10T04:38:43.704Z,94315.00
2023-05-10T04:39:43.724Z,94315.00
2023-05-10T04:40:43.774Z,94313.00
2023-05-10T04:41:43.827Z,94315.00
2023-05-10T04:42:43.885Z,94313.00
2023-05-10T04:43:44.016Z,94315.00
2023-05-10T04:44:43.958Z,94319.00
2023-05-10T04:45:44.021Z,94317.00
2023-05-10T04:46:44.100Z,94319.00
2023-05-10T04:47:44.160Z,94319.00
2023-05-10T04:48:44.107Z,94319.00
2023-05-10T04:49:44.174Z,94323.00
2023-05-10T04:50:44.192Z,94321.00
2023-05-10T04:51:44.252Z,94321.00
2023-05-10T04:52:44.285Z,94325.00
2023-05-10T04:53:48.609Z,94321.00
2023-05-10T04:54:45.321Z,94321.00
2023-05-10T04:55:44.334Z,94321.00
2023-05-10T04:56:44.320Z,94321.00
2023-05-10T04:57:44.320Z,94323.00
2023-05-10T04:58:44.305Z,94323.00
2023-05-10T04:59:44.320Z,94323.00
2023-05-10T05:00:44.257Z,94325.00
2023-05-10T05:01:44.310Z,94327.00
2023-05-10T05:02:44.347Z,94323.00
2023-05-10T05:03:44.365Z,94325.00
2023-05-10T05:04:44.250Z,94325.00
2023-05-10T05:05:44.256Z,94329.00
2023-05-10T05:06:44.269Z,94333.00
2023-05-10T05:07:44.318Z,94335.00
2023-05-10T05:08:44.337Z,94336.00
2023-05-10T05:09:44.384Z,94336.00
2023-05-10T05:10:44.388Z,94338.00
2023-05-10T05:11:44.500Z,94338.00
2023-05-10T05:12:44.612Z,94338.00
2023-05-10T05:13:44.589Z,94338.00
2023-05-10T05:14:44.571Z,94340.00
2023-05-10T05:15:44.624Z,94340.00
2023-05-10T05:16:44.755Z,94340.00
2023-05-10T05:17:44.758Z,94342.00
2023-05-10T05:18:44.804Z,94344.00
2023-05-10T05:19:44.846Z,94342.00
2023-05-10T05:20:44.868Z,94344.00
2023-05-10T05:21:44.929Z,94344.00
2023-05-10T05:22:44.988Z,94348.00
2023-05-10T05:23:44.985Z,94346.00
2023-05-10T05:24:45.042Z,94346.00
2023-05-10T05:25:45.110Z,94344.00
2023-05-10T05:26:45.111Z,94348.00
2023-05-10T05:27:45.165Z,94348.00
2023-05-10T05:28:45.187Z,94346.00
2023-05-10T05:29:45.233Z,94350.00
2023-05-10T05:30:45.285Z,94348.00
2023-05-10T05:31:45.380Z,94348.00
2023-05-10T05:32:45.393Z,94350.00
2023-05-10T05:33:45.383Z,94350.00
2023-05-10T05:34:45.424Z,94354.00
2023-05-10T05:35:45.495Z,94352.00
2023-05-10T05:36:45.565Z,94352.00
2023-05-10T05:37:45.636Z,94354.00
2023-05-10T05:38:45.647Z,94356.00
2023-05-10T05:39:45.663Z,94358.00
2023-05-10T05:40:45.726Z,94354.00
2023-05-10T05:41:46.191Z,94354.00
2023-05-10T05:42:45.844Z,94358.00
2023-05-10T05:43:45.890Z,94356.00
2023-05-10T05:44:45.958Z,94356.00
2023-05-10T05:45:45.982Z,94358.00
2023-05-10T05:46:46.034Z,94356.00
2023-05-10T05:47:46.143Z,94360.00
2023-05-10T05:48:46.125Z,94360.00
2023-05-10T05:49:46.232Z,94364.00
2023-05-10T05:50:46.655Z,94383.00
2023-05-10T05:51:46.209Z,94380.00
2023-05-10T05:52:46.339Z,94381.00
2023-05-10T05:53:46.645Z,94380.00
2023-05-10T05:54:46.239Z,94383.00
2023-05-10T05:55:46.292Z,94380.00
2023-05-10T05:56:46.291Z,94381.00
2023-05-10T05:57:46.333Z,94381.00
2023-05-10T05:58:46.325Z,94381.00
2023-05-10T05:59:46.362Z,94383.00
2023-05-10T06:00:46.425Z,94383.00
2023-05-10T06:01:46.717Z,94381.00
2023-05-10T06:02:46.682Z,94381.00
2023-05-10T06:03:46.715Z,94383.00
2023-05-10T06:04:46.636Z,94381.00
2023-05-10T06:05:46.716Z,94381.00
2023-05-10T06:06:47.203Z,94383.00
2023-05-10T06:07:46.836Z,94381.00
2023-05-10T06:08:47.154Z,94381.00
2023-05-10T06:09:47.150Z,94389.00
2023-05-10T06:10:47.168Z,94383.00
2023-05-10T06:11:47.170Z,94385.00
2023-05-10T06:12:47.199Z,94385.00
2023-05-10T06:13:47.118Z,94383.00
2023-05-10T06:14:47.237Z,94385.00
2023-05-10T06:15:47.257Z,94383.00
2023-05-10T06:16:47.323Z,94385.00
2023-05-10T06:17:47.688Z,94387.00
2023-05-10T06:18:47.445Z,94387.00
2023-05-10T06:19:47.517Z,94387.00
2023-05-10T06:20:47.542Z,94389.00
2023-05-10T06:21:47.584Z,94389.00
2023-05-10T06:22:47.653Z,94393.00
2023-05-10T06:23:47.763Z,94395.00
2023-05-10T06:24:47.701Z,94397.00
2023-05-10T06:25:47.776Z,94393.00
2023-05-10T06:26:47.802Z,94399.00
2023-05-10T06:27:50.475Z,94399.00
2023-05-10T06:28:47.893Z,94399.00
2023-05-10T06:29:49.215Z,94403.00
2023-05-10T06:30:48.046Z,94405.00
2023-05-10T06:31:48.096Z,94401.00
2023-05-10T06:32:48.217Z,94403.00
2023-05-10T06:33:48.241Z,94401.00
2023-05-10T06:34:48.259Z,94405.00
2023-05-10T06:35:48.363Z,94391.00
2023-05-10T06:36:48.361Z,94389.00
2023-05-10T06:37:48.402Z,94389.00
2023-05-10T06:38:48.684Z,94391.00
2023-05-10T06:39:48.490Z,94389.00
2023-05-10T06:40:48.569Z,94391.00
2023-05-10T06:41:48.559Z,94391.00
2023-05-10T06:42:48.601Z,94389.00
2023-05-10T06:43:48.610Z,94401.00
2023-05-10T06:44:48.657Z,94403.00
2023-05-10T06:45:48.788Z,94403.00
2023-05-10T06:46:48.832Z,94407.00
2023-05-10T06:47:48.806Z,94405.00
2023-05-10T06:48:49.194Z,94405.00
2023-05-10T06:49:49.192Z,94403.00
2023-05-10T06:50:49.127Z,94403.00
2023-05-10T06:51:49.114Z,94403.00
2023-05-10T06:52:49.566Z,94405.00
2023-05-10T06:53:49.069Z,94403.00
2023-05-10T06:54:49.040Z,94403.00
2023-05-10T06:55:49.137Z,94403.00
2023-05-10T06:56:49.118Z,94403.00
2023-05-10T06:57:49.585Z,94403.00
2023-05-10T06:58:49.218Z,94401.00
2023-05-10T06:59:49.173Z,94401.00
2023-05-10T07:00:49.263Z,94399.00
2023-05-10T07:01:49.299Z,94401.00
2023-05-10T07:02:49.400Z,94403.00
2023-05-10T07:03:49.392Z,94401.00
2023-05-10T07:04:49.454Z,94401.00
2023-05-10T07:05:49.439Z,94403.00
2023-05-10T07:06:49.492Z,94403.00
2023-05-10T07:07:49.510Z,94405.00
2023-05-10T07:08:49.511Z,94403.00
2023-05-10T07:09:49.562Z,94403.00
2023-05-10T07:10:49.557Z,94403.00
2023-05-10T07:11:49.631Z,94403.00
2023-05-10T07:12:49.731Z,94403.00
2023-05-10T07:13:49.632Z,94401.00
2023-05-10T07:14:49.685Z,94403.00
2023-05-10T07:15:49.735Z,94401.00
2023-05-10T07:16:49.708Z,94401.00
2023-05-10T07:17:49.853Z,94405.00
2023-05-10T07:18:49.777Z,94401.00
2023-05-10T07:19:49.834Z,94403.00
2023-05-10T07:20:49.947Z,94399.00
2023-05-10T07:21:49.942Z,94403.00
2023-05-10T07:22:49.956Z,94403.00
2023-05-10T07:23:50.007Z,94405.00
2023-05-10T07:24:50.029Z,94405.00
2023-05-10T07:25:50.081Z,94409.00
2023-05-10T07:26:50.092Z,94411.00
2023-05-10T07:27:50.110Z,94413.00
2023-05-10T07:28:50.184Z,94413.00
2023-05-10T07:29:50.186Z,94413.00
2023-05-10T07:30:50.339Z,94409.00
2023-05-10T07:31:50.304Z,94409.00
2023-05-10T07:32:50.316Z,94395.00
2023-05-10T07:33:50.300Z,94393.00
2023-05-10T07:34:50.305Z,94397.00
2023-05-10T07:35:50.354Z,94391.00
2023-05-10T07:36:50.319Z,94391.00
2023-05-10T07:37:50.384Z,94405.00
2023-05-10T07:38:50.385Z,94405.00
2023-05-10T07:39:51.144Z,94403.00
2023-05-10T07:40:50.492Z,94389.00
2023-05-10T07:41:50.494Z,94405.00
2023-05-10T07:42:50.512Z,94407.00
2023-05-10T07:43:50.562Z,94403.00
2023-05-10T07:44:50.624Z,94405.00
2023-05-10T07:45:50.674Z,94409.00
2023-05-10T07:46:50.655Z,94405.00
2023-05-10T07:47:50.659Z,94413.00
2023-05-10T07:48:50.727Z,94413.00
2023-05-10T07:49:50.705Z,94411.00
2023-05-10T07:50:50.724Z,94415.00
2023-05-10T07:51:50.769Z,94415.00
2023-05-10T07:52:50.776Z,94417.00
2023-05-10T07:53:50.766Z,94417.00
2023-05-10T07:54:50.773Z,94419.00
2023-05-10T07:55:50.770Z,94419.00
2023-05-10T07:56:50.792Z,94419.00
2023-05-10T07:57:50.841Z,94419.00
2023-05-10T07:58:50.824Z,94419.00
2023-05-10T07:59:50.887Z,94419.00
2023-05-10T08:00:50.881Z,94417.00
2023-05-10T08:01:50.881Z,94417.00
2023-05-10T08:02:50.976Z,94417.00
2023-05-10T08:03:50.986Z,94419.00
2023-05-10T08:04:50.953Z,94417.00
2023-05-10T08:05:50.886Z,94417.00
2023-05-10T08:06:50.964Z,94419.00
2023-05-10T08:07:50.968Z,94419.00
2023-05-10T08:08:50.976Z,94421.00
2023-05-10T08:09:50.985Z,94421.00
2023-05-10T08:10:51.001Z,94421.00
2023-05-10T08:11:50.987Z,94423.00
2023-05-10T08:12:50.991Z,94425.00
2023-05-10T08:13:51.003Z,94423.00
2023-05-10T08:14:51.017Z,94425.00
2023-05-10T08:15:51.061Z,94425.00
2023-05-10T08:16:51.012Z,94417.00
2023-05-10T08:17:51.124Z,94427.00
2023-05-10T08:18:51.156Z,94427.00
2023-05-10T08:19:51.122Z,94429.00
2023-05-10T08:20:51.113Z,94427.00
2023-05-10T08:21:51.126Z,94431.00
2023-05-10T08:22:51.906Z,94429.00
2023-05-10T08:23:51.128Z,94417.00
2023-05-10T08:24:51.171Z,94415.00
2023-05-10T08:25:51.173Z,94413.00
2023-05-10T08:26:51.174Z,94415.00
2023-05-10T08:27:51.216Z,94413.00
2023-05-10T08:28:51.279Z,94419.00
2023-05-10T08:29:51.280Z,94423.00
2023-05-10T08:30:51.232Z,94423.00
2023-05-10T08:31:51.333Z,94423.00
2023-05-10T08:32:51.284Z,94425.00
2023-05-10T08:33:51.274Z,94423.00
2023-05-10T08:34:51.324Z,94423.00
2023-05-10T08:35:51.328Z,94425.00
2023-05-10T08:36:51.369Z,94425.00
2023-05-10T08:37:51.331Z,94425.00
2023-05-10T08:38:52.116Z,94429.00
2023-05-10T08:39:51.419Z,94429.00
2023-05-10T08:40:51.470Z,94431.00
2023-05-10T08:41:51.570Z,94433.00
2023-05-10T08:42:51.528Z,94444.00
2023-05-10T08:43:51.562Z,94446.00
2023-05-10T08:44:51.606Z,94446.00
2023-05-10T08:45:51.645Z,94446.00
2023-05-10T08:46:51.673Z,94436.00
2023-05-10T08:47:51.702Z,94436.00
2023-05-10T08:48:51.730Z,94450.00
2023-05-10T08:49:52.094Z,94450.00
2023-05-10T08:50:51.748Z,94456.00
2023-05-10T08:51:51.790Z,94452.00
2023-05-10T08:52:51.806Z,94452.00
2023-05-10T08:53:51.873Z,94452.00
2023-05-10T08:54:51.850Z,94452.00
2023-05-10T08:55:51.909Z,94438.00
2023-05-10T08:56:51.936Z,94452.00
2023-05-10T08:57:51.972Z,94450.00
2023-05-10T08:58:51.994Z,94452.00
2023-05-10T08:59:52.012Z,94454.00
2023-05-10T09:00:52.166Z,94454.00
2023-05-10T09:01:52.014Z,94440.00
2023-05-10T09:02:52.102Z,94456.00
2023-05-10T09:03:52.137Z,94462.00
2023-05-10T09:04:52.269Z,94464.00
2023-05-10T09:05:52.098Z,94468.00
2023-05-10T09:06:52.100Z,94462.00
2023-05-10T09:07:52.122Z,94460.00
2023-05-10T09:08:52.182Z,94460.00
2023-05-10T09:09:52.191Z,94462.00
2023-05-10T09:10:52.234Z,94462.00
2023-05-10T09:11:52.298Z,94462.00
2023-05-10T09:12:52.338Z,94460.00
2023-05-10T09:13:52.361Z,94462.00
2023-05-10T09:14:52.454Z,94460.00
2023-05-10T09:15:53.088Z,94462.00
2023-05-10T09:16:52.539Z,94462.00
2023-05-10T09:17:52.593Z,94464.00
2023-05-10T09:18:52.651Z,94466.00
2023-05-10T09:19:52.569Z,94466.00
2023-05-10T09:20:52.556Z,94470.00
2023-05-10T09:21:52.633Z,94468.00
2023-05-10T09:22:52.673Z,94470.00
2023-05-10T09:23:52.738Z,94466.00
2023-05-10T09:24:52.750Z,94468.00
2023-05-10T09:25:52.841Z,94470.00
2023-05-10T09:26:52.909Z,94468.00
2023-05-10T09:27:52.957Z,94468.00
2023-05-10T09:28:53.029Z,94470.00
2023-05-10T09:29:52.983Z,94458.00
2023-05-10T09:30:53.078Z,94462.00
2023-05-10T09:31:53.090Z,94458.00
2023-05-10T09:32:53.191Z,94460.00
2023-05-10T09:33:53.206Z,94456.00
2023-05-10T09:34:53.296Z,94454.00
2023-05-10T09:35:53.240Z,94456.00
2023-05-10T09:36:53.315Z,94454.00
2023-05-10T09:37:53.346Z,94452.00
2023-05-10T09:38:53.428Z,94470.00
2023-05-10T09:39:53.517Z,94466.00
2023-05-10T09:40:53.530Z,94470.00
2023-05-10T09:41:53.524Z,94470.00
2023-05-10T09:42:53.602Z,94468.00
2023-05-10T09:43:53.572Z,94470.00
2023-05-10T09:44:53.599Z,94466.00
2023-05-10T09:45:53.619Z,94466.00
2023-05-10T09:46:53.624Z,94464.00
2023-05-10T09:47:53.727Z,94462.00
2023-05-10T09:48:53.685Z,94466.00
2023-05-10T09:49:53.690Z,94464.00
2023-05-10T09:50:53.697Z,94464.00
2023-05-10T09:51:53.696Z,94464.00
2023-05-10T09:52:54.105Z,94464.00
2023-05-10T09:53:53.937Z,94464.00
2023-05-10T09:54:53.943Z,94464.00
2023-05-10T09:55:53.861Z,94466.00
2023-05-10T09:56:53.891Z,94466.00
2023-05-10T09:57:53.944Z,94462.00
2023-05-10T09:58:53.981Z,94466.00
2023-05-10T09:59:54.001Z,94470.00
2023-05-10T10:00:54.064Z,94466.00
2023-05-10T10:01:54.196Z,94468.00
2023-05-10T10:02:54.192Z,94468.00
2023-05-10T10:03:54.230Z,94468.00
2023-05-10T10:04:54.357Z,94468.00
2023-05-10T10:05:54.351Z,94466.00
2023-05-10T10:06:54.415Z,94464.00
2023-05-10T10:07:54.471Z,94468.00
2023-05-10T10:08:56.777Z,94466.00
2023-05-10T10:09:54.665Z,94466.00
2023-05-10T10:10:54.644Z,94470.00
2023-05-10T10:11:54.713Z,94466.00
2023-05-10T10:12:54.772Z,94470.00
2023-05-10T10:13:54.822Z,94468.00
2023-05-10T10:14:54.888Z,94470.00
2023-05-10T10:15:55.006Z,94472.00
2023-05-10T10:17:05.862Z,94472.00
2023-05-10T10:17:56.060Z,94474.00
2023-05-10T10:18:55.110Z,94474.00
2023-05-10T10:19:54.977Z,94476.00
2023-05-10T10:20:54.969Z,94474.00
2023-05-10T10:21:55.075Z,94472.00
2023-05-10T10:22:54.968Z,94474.00
2023-05-10T10:23:54.947Z,94472.00
2023-05-10T10:24:54.958Z,94472.00
2023-05-10T10:25:54.953Z,94456.00
2023-05-10T10:26:55.084Z,94456.00
2023-05-10T10:27:54.985Z,94460.00
2023-05-10T10:28:55.011Z,94460.00
2023-05-10T10:29:55.067Z,94462.00
2023-05-10T10:30:55.053Z,94470.00
2023-05-10T10:31:55.147Z,94474.00
2023-05-10T10:32:55.104Z,94474.00
2023-05-10T10:33:55.120Z,94474.00
2023-05-10T10:34:55.137Z,94474.00
2023-05-10T10:35:55.196Z,94474.00
2023-05-10T10:36:55.264Z,94472.00
2023-05-10T10:37:55.341Z,94472.00
2023-05-10T10:38:55.387Z,94464.00
2023-05-10T10:39:55.452Z,94458.00
2023-05-10T10:40:55.565Z,94460.00
2023-05-10T10:41:55.601Z,94460.00
2023-05-10T10:42:55.586Z,94460.00
2023-05-10T10:43:55.640Z,94460.00
2023-05-10T10:44:55.642Z,94460.00
2023-05-10T10:45:55.712Z,94460.00
2023-05-10T10:46:55.750Z,94462.00
2023-05-10T10:47:55.762Z,94460.00
2023-05-10T10:48:55.752Z,94462.00
2023-05-10T10:49:55.840Z,94462.00
2023-05-10T10:50:55.843Z,94460.00
2023-05-10T10:51:55.889Z,94458.00
2023-05-10T10:52:55.924Z,94460.00
2023-05-10T10:53:55.917Z,94458.00
2023-05-10T10:54:55.981Z,94458.00
2023-05-10T10:55:55.959Z,94460.00
2023-05-10T10:56:55.991Z,94458.00
2023-05-10T10:57:56.010Z,94456.00
2023-05-10T10:58:56.038Z,94462.00
2023-05-10T10:59:56.036Z,94452.00
2023-05-10T11:00:56.153Z,94456.00
2023-05-10T11:01:56.070Z,94454.00
2023-05-10T11:02:56.212Z,94454.00
2023-05-10T11:03:56.173Z,94448.00
2023-05-10T11:04:56.092Z,94450.00
2023-05-10T11:05:56.148Z,94454.00
2023-05-10T11:06:56.113Z,94454.00
2023-05-10T11:07:56.180Z,94456.00
2023-05-10T11:08:56.184Z,94454.00
2023-05-10T11:09:56.203Z,94454.00
2023-05-10T11:10:56.187Z,94450.00
2023-05-10T11:11:56.497Z,94452.00
2023-05-10T11:12:56.214Z,94450.00
2023-05-10T11:13:56.217Z,94446.00
2023-05-10T11:14:56.221Z,94460.00
2023-05-10T11:15:56.212Z,94442.00
2023-05-10T11:16:56.338Z,94444.00
2023-05-10T11:17:56.268Z,94446.00
2023-05-10T11:18:56.406Z,94444.00
2023-05-10T11:19:56.345Z,94442.00
2023-05-10T11:20:56.393Z,94442.00
2023-05-10T11:21:56.456Z,94442.00
2023-05-10T11:22:56.503Z,94442.00
2023-05-10T11:23:56.525Z,94444.00
2023-05-10T11:24:56.523Z,94442.00
2023-05-10T11:25:56.521Z,94442.00
2023-05-10T11:26:56.608Z,94444.00
2023-05-10T11:27:57.010Z,94446.00
2023-05-10T11:28:56.634Z,94446.00
2023-05-10T11:29:56.645Z,94448.00
2023-05-10T11:30:56.700Z,94446.00
2023-05-10T11:31:56.676Z,94444.00
2023-05-10T11:32:56.743Z,94444.00
2023-05-10T11:33:56.704Z,94444.00
2023-05-10T11:34:56.740Z,94444.00
2023-05-10T11:35:56.765Z,94444.00
2023-05-10T11:36:56.843Z,94442.00
2023-05-10T11:37:56.799Z,94440.00
2023-05-10T11:38:56.844Z,94442.00
2023-05-10T11:39:56.857Z,94442.00
2023-05-10T11:40:56.898Z,94442.00
2023-05-10T11:41:56.938Z,94440.00
2023-05-10T11:42:57.013Z,94442.00
2023-05-10T11:43:57.017Z,94440.00
2023-05-10T11:44:57.051Z,94442.00